Time;durP1;ratioP1;P1;durP2;ratioP2;P2;SDS_P1;SDS_P2;PMS_P1;PMS_P2;Temp;Humidity;BMP_temperature;BMP_pressure;BME280_temperature;BME280_humidity;BME280_pressure;Samples;Min_cycle;Max_cycle;Signal;HPM_P1;HPM_P2
2022/02/28 00:00:29;;;;;;;72.45;25.85;;;;;;;-1.87;74.42;100100.31;5109596;28;20674;-75
2022/02/28 00:02:56;;;;;;;57.20;24.05;;;;;;;-1.89;74.42;100094.28;5090821;28;20031;-76
2022/02/28 00:05:22;;;;;;;64.40;24.85;;;;;;;-1.92;73.99;100091.06;5110095;28;20023;-76
2022/02/28 00:07:51;;;;;;;89.88;32.13;;;;;;;-1.92;74.36;100093.75;5110273;28;20039;-76
2022/02/28 00:10:17;;;;;;;72.93;28.65;;;;;;;-1.93;74.25;100089.41;5107893;28;20070;-76
2022/02/28 00:12:44;;;;;;;85.32;30.38;;;;;;;-1.97;74.03;100088.91;5110100;28;20028;-75
2022/02/28 00:15:12;;;;;;;103.28;35.70;;;;;;;-1.98;74.26;100082.69;5110586;28;20047;-75
2022/02/28 00:17:38;;;;;;;69.90;26.15;;;;;;;-1.94;74.18;100091.25;5089135;28;20079;-76
2022/02/28 00:20:07;;;;;;;59.63;23.00;;;;;;;-1.91;74.12;100084.69;5110102;28;20020;-76
2022/02/28 00:22:33;;;;;;;54.55;20.65;;;;;;;-1.91;74.61;100080.16;5109347;28;20062;-75
2022/02/28 00:24:59;;;;;;;64.45;25.25;;;;;;;-1.93;74.62;100075.94;5109835;28;20051;-74
2022/02/28 00:27:25;;;;;;;49.90;21.20;;;;;;;-1.91;74.65;100069.41;5109751;28;20020;-75
2022/02/28 00:29:51;;;;;;;83.93;27.85;;;;;;;-1.92;74.53;100072.25;5109977;28;20027;-75
2022/02/28 00:32:16;;;;;;;56.20;22.20;;;;;;;-1.96;74.22;100066.41;5109053;28;20127;-75
2022/02/28 00:34:41;;;;;;;63.22;23.63;;;;;;;-2.00;74.21;100065.88;5109819;28;20034;-75
2022/02/28 00:37:07;;;;;;;54.67;22.95;;;;;;;-2.05;74.39;100062.06;5110180;28;20053;-75
2022/02/28 00:39:32;;;;;;;47.67;19.70;;;;;;;-2.12;74.04;100064.63;5109040;28;20031;-76
2022/02/28 00:41:58;;;;;;;46.00;20.13;;;;;;;-2.18;74.41;100059.94;5090479;28;20446;-75
2022/02/28 00:44:23;;;;;;;57.28;23.42;;;;;;;-2.20;74.51;100056.56;5109563;28;20483;-76
2022/02/28 00:46:49;;;;;;;56.47;21.45;;;;;;;-2.24;74.10;100056.06;5110177;28;20073;-75
2022/02/28 00:49:14;;;;;;;52.92;21.20;;;;;;;-2.32;74.45;100054.25;5110353;28;20046;-75
2022/02/28 00:51:39;;;;;;;49.53;20.23;;;;;;;-2.35;74.43;100049.22;5110108;28;20103;-75
2022/02/28 00:54:05;;;;;;;54.08;21.10;;;;;;;-2.37;74.37;100043.16;5090505;28;20027;-75
2022/02/28 00:56:30;;;;;;;47.08;19.45;;;;;;;-2.43;74.36;100047.41;5109647;28;20364;-76
2022/02/28 00:58:56;;;;;;;48.30;20.48;;;;;;;-2.46;74.40;100042.38;5110040;28;20499;-75
2022/02/28 01:01:22;;;;;;;46.72;19.98;;;;;;;-2.50;74.32;100035.66;5109246;28;20453;-76
2022/02/28 01:03:47;;;;;;;48.20;21.45;;;;;;;-2.54;73.88;100037.00;5109539;28;20028;-75
2022/02/28 01:06:13;;;;;;;51.47;20.50;;;;;;;-2.60;74.07;100027.78;5109524;28;20020;-74
2022/02/28 01:08:39;;;;;;;42.33;18.23;;;;;;;-2.60;74.26;100026.94;5109056;28;20085;-77
2022/02/28 01:11:05;;;;;;;45.13;18.90;;;;;;;-2.65;74.07;100026.66;5109161;28;20024;-76
2022/02/28 01:13:31;;;;;;;52.45;22.42;;;;;;;-2.69;74.52;100036.88;5109068;28;20032;-76
2022/02/28 01:15:56;;;;;;;51.33;21.20;;;;;;;-2.73;74.12;100038.22;5109608;28;20024;-75
2022/02/28 01:18:22;;;;;;;46.47;21.42;;;;;;;-2.73;74.56;100025.66;5109035;28;20468;-75
2022/02/28 01:20:50;;;;;;;49.92;20.73;;;;;;;-2.70;74.25;100033.38;5110595;28;20498;-76
2022/02/28 01:23:16;;;;;;;49.80;22.00;;;;;;;-2.70;74.49;100035.19;5110293;28;20032;-77
2022/02/28 01:25:42;;;;;;;55.20;24.20;;;;;;;-2.76;74.04;100026.00;5110502;28;20038;-77
2022/02/28 01:28:07;;;;;;;43.75;20.65;;;;;;;-2.76;74.29;100031.34;5110034;28;20073;-76
2022/02/28 01:30:33;;;;;;;44.60;21.27;;;;;;;-2.81;74.11;100028.34;5109125;28;20443;-75
2022/02/28 01:32:59;;;;;;;45.58;18.77;;;;;;;-2.87;74.50;100023.66;5108992;28;20031;-77
2022/02/28 01:35:24;;;;;;;45.92;20.95;;;;;;;-2.90;74.52;100026.66;5090606;28;20027;-76
2022/02/28 01:37:49;;;;;;;47.95;19.83;;;;;;;-2.90;74.22;100024.84;5109534;28;20027;-76
2022/02/28 01:40:15;;;;;;;45.83;20.08;;;;;;;-2.91;74.81;100025.84;5108706;28;20020;-76
2022/02/28 01:42:42;;;;;;;46.88;20.27;;;;;;;-2.94;74.31;100026.19;5090630;28;20022;-75
2022/02/28 01:45:10;;;;;;;45.00;19.58;;;;;;;-2.98;74.32;100024.84;5107175;28;20012;-74
2022/02/28 01:47:36;;;;;;;47.17;20.73;;;;;;;-3.04;74.70;100023.66;5108059;28;20057;-76
2022/02/28 01:50:03;;;;;;;48.33;20.90;;;;;;;-3.05;74.81;100024.66;5106237;28;20019;-76
2022/02/28 01:52:28;;;;;;;57.08;24.85;;;;;;;-3.06;74.94;100025.69;5108344;28;20019;-76
2022/02/28 01:54:54;;;;;;;49.75;22.25;;;;;;;-3.09;74.45;100023.34;5109096;28;20032;-76
2022/02/28 01:57:19;;;;;;;54.28;21.83;;;;;;;-3.10;74.85;100024.34;5108422;28;20131;-76
2022/02/28 01:59:45;;;;;;;48.38;20.33;;;;;;;-3.10;74.46;100024.34;5109019;28;20063;-76
2022/02/28 02:02:10;;;;;;;42.45;20.20;;;;;;;-3.12;74.54;100018.31;5108569;28;20016;-75
2022/02/28 02:04:36;;;;;;;47.50;20.80;;;;;;;-3.11;74.56;100021.81;5110279;28;20098;-76
2022/02/28 02:07:04;;;;;;;49.47;20.10;;;;;;;-3.17;74.26;100020.66;5094700;28;20035;-76
2022/02/28 02:09:33;;;;;;;48.03;21.15;;;;;;;-3.20;74.18;100016.44;5112899;28;20020;-76
2022/02/28 02:11:58;;;;;;;45.70;20.67;;;;;;;-3.21;74.63;100014.75;5112373;28;20020;-76
2022/02/28 02:14:24;;;;;;;45.85;19.73;;;;;;;-3.19;74.64;100006.56;5112491;28;20345;-76
2022/02/28 02:16:50;;;;;;;48.90;22.13;;;;;;;-3.22;74.59;100013.09;5112215;28;20024;-76
2022/02/28 02:19:15;;;;;;;46.08;20.10;;;;;;;-3.25;74.30;100002.69;5094532;28;20039;-76
2022/02/28 02:21:41;;;;;;;42.35;20.65;;;;;;;-3.27;74.29;99998.50;5112547;28;20026;-76
2022/02/28 02:24:06;;;;;;;50.50;21.10;;;;;;;-3.31;74.01;100004.19;5092420;28;20475;-76
2022/02/28 02:26:31;;;;;;;45.08;18.67;;;;;;;-3.33;74.99;100000.84;5112336;28;20051;-76
2022/02/28 02:28:57;;;;;;;43.20;19.70;;;;;;;-3.34;74.44;100003.72;5112513;28;20035;-76
2022/02/28 02:31:22;;;;;;;46.95;21.30;;;;;;;-3.35;74.28;99999.34;5110607;28;20016;-76
2022/02/28 02:33:50;;;;;;;49.28;22.70;;;;;;;-3.37;74.22;99996.81;5112247;28;20106;-77
2022/02/28 02:36:18;;;;;;;47.25;22.20;;;;;;;-3.41;74.08;100003.53;5112348;28;20027;-76
2022/02/28 02:38:44;;;;;;;51.03;21.98;;;;;;;-3.45;74.12;100002.19;5111624;28;20446;-76
2022/02/28 02:41:09;;;;;;;51.40;21.95;;;;;;;-3.47;74.57;99993.50;5114818;28;20084;-76
2022/02/28 02:43:35;;;;;;;45.53;19.00;;;;;;;-3.49;74.52;99999.00;5114164;28;20536;-75
2022/02/28 02:46:01;;;;;;;41.53;20.23;;;;;;;-3.53;73.76;100000.34;5114773;28;20027;-76
2022/02/28 02:48:27;;;;;;;46.17;19.55;;;;;;;-3.54;74.17;100001.34;5113504;28;20049;-76
2022/02/28 02:50:54;;;;;;;41.80;18.35;;;;;;;-3.58;74.23;100002.66;5112283;28;20027;-75
2022/02/28 02:53:19;;;;;;;47.65;21.27;;;;;;;-3.62;73.71;100014.72;5111092;28;20039;-75
2022/02/28 02:55:45;;;;;;;55.42;23.25;;;;;;;-3.68;73.85;100002.00;5112337;28;20027;-76
2022/02/28 02:58:14;;;;;;;66.25;25.98;;;;;;;-3.70;73.61;100004.03;5110738;28;20047;-76
2022/02/28 03:00:45;;;;;;;55.10;22.88;;;;;;;-3.70;74.19;100010.19;5111592;28;20092;-76
2022/02/28 03:03:15;;;;;;;56.60;22.65;;;;;;;-3.69;74.27;100013.75;5111873;28;20102;-75
2022/02/28 03:05:41;;;;;;;58.90;23.45;;;;;;;-3.70;74.26;100009.38;5111882;28;20106;-75
2022/02/28 03:08:06;;;;;;;48.75;20.95;;;;;;;-3.71;74.46;100007.69;5111613;28;20114;-76
2022/02/28 03:10:32;;;;;;;52.03;21.70;;;;;;;-3.74;74.50;100020.44;5111351;28;20032;-76
2022/02/28 03:12:58;;;;;;;47.00;20.38;;;;;;;-3.71;74.41;100005.03;5111168;28;20106;-76
2022/02/28 03:15:23;;;;;;;46.15;19.38;;;;;;;-3.75;74.22;100009.84;5110502;28;20440;-76
2022/02/28 03:17:48;;;;;;;40.03;18.33;;;;;;;-3.76;74.34;100008.19;5112098;28;20031;-77
2022/02/28 03:20:14;;;;;;;44.08;19.48;;;;;;;-3.79;74.53;100011.19;5111319;28;20046;-76
2022/02/28 03:22:39;;;;;;;47.35;20.35;;;;;;;-3.81;74.31;100011.38;5112379;28;20016;-76
2022/02/28 03:25:06;;;;;;;43.90;18.13;;;;;;;-3.83;74.50;100009.84;5112874;28;20016;-77
2022/02/28 03:27:32;;;;;;;44.38;19.17;;;;;;;-3.81;73.70;100013.19;5112036;28;20080;-76
2022/02/28 03:29:57;;;;;;;42.63;21.45;;;;;;;-3.83;74.04;100016.06;5112478;28;20488;-76
2022/02/28 03:32:23;;;;;;;40.38;18.90;;;;;;;-3.84;74.40;100011.69;5111429;28;20038;-76
2022/02/28 03:34:48;;;;;;;44.95;20.25;;;;;;;-3.85;74.18;100007.31;5112010;28;20483;-76
2022/02/28 03:37:14;;;;;;;42.45;18.83;;;;;;;-3.84;73.96;100011.69;5112432;28;20064;-77
2022/02/28 03:39:39;;;;;;;45.95;19.52;;;;;;;-3.87;74.14;100006.66;5112224;28;20024;-76
2022/02/28 03:42:05;;;;;;;39.72;19.10;;;;;;;-3.88;74.44;100002.28;5112009;28;20387;-76
2022/02/28 03:44:30;;;;;;;40.20;17.90;;;;;;;-3.86;74.19;100010.16;5093213;28;20047;-76
2022/02/28 03:46:56;;;;;;;42.85;19.77;;;;;;;-3.87;74.09;100009.34;5112186;28;20543;-76
2022/02/28 03:49:21;;;;;;;40.17;17.90;;;;;;;-3.87;73.73;100008.50;5112082;28;20054;-76
2022/02/28 03:51:47;;;;;;;40.38;19.48;;;;;;;-3.93;74.17;100007.31;5111972;28;20530;-76
2022/02/28 03:54:13;;;;;;;41.78;18.67;;;;;;;-3.95;74.23;100004.78;5112136;28;20028;-76
2022/02/28 03:56:40;;;;;;;39.28;18.98;;;;;;;-3.96;73.92;100003.13;5111586;28;20028;-76
2022/02/28 03:59:07;;;;;;;43.05;18.92;;;;;;;-3.97;74.15;99998.75;5092693;28;20488;-77
2022/02/28 04:01:33;;;;;;;38.35;16.02;;;;;;;-3.98;74.32;100005.13;5111653;28;20046;-74
2022/02/28 04:03:59;;;;;;;40.92;16.85;;;;;;;-4.01;74.39;100008.13;5111743;28;20471;-76
2022/02/28 04:06:25;;;;;;;37.55;18.02;;;;;;;-4.03;73.88;100002.09;5111431;28;20016;-76
2022/02/28 04:08:50;;;;;;;47.15;19.20;;;;;;;-4.04;74.41;99997.72;5111313;28;20063;-76
2022/02/28 04:11:16;;;;;;;46.33;20.45;;;;;;;-4.04;74.01;99995.88;5110942;28;20452;-76
2022/02/28 04:13:42;;;;;;;51.15;22.95;;;;;;;-3.99;74.19;100008.81;5110915;28;20024;-76
2022/02/28 04:16:07;;;;;;;54.97;24.38;;;;;;;-3.96;74.69;99996.91;5111313;28;20024;-76
2022/02/28 04:18:33;;;;;;;46.03;21.30;;;;;;;-3.95;73.99;100015.53;5089635;28;20036;-76
2022/02/28 04:20:59;;;;;;;39.22;19.88;;;;;;;-3.95;75.19;100006.63;5111094;28;20114;-76
2022/02/28 04:23:24;;;;;;;40.33;18.70;;;;;;;-3.96;74.16;100003.13;5111268;28;20429;-76
2022/02/28 04:25:50;;;;;;;40.67;19.33;;;;;;;-3.97;74.68;100006.81;5111328;28;20022;-77
2022/02/28 04:28:15;;;;;;;39.97;18.38;;;;;;;-3.95;74.36;100011.97;5111997;28;20122;-77
2022/02/28 04:30:40;;;;;;;38.97;19.73;;;;;;;-3.96;74.24;100012.97;5114100;28;20475;-76
2022/02/28 04:33:06;;;;;;;41.97;18.95;;;;;;;-3.97;74.43;100009.47;5114031;28;20031;-76
2022/02/28 04:35:32;;;;;;;52.30;26.38;;;;;;;-3.99;74.20;100014.16;5113093;28;20089;-76
2022/02/28 04:37:57;;;;;;;50.80;21.05;;;;;;;-3.99;74.25;100016.00;5113597;28;20061;-76
2022/02/28 04:40:23;;;;;;;40.88;18.83;;;;;;;-3.99;74.44;100022.22;5109867;28;20024;-76
2022/02/28 04:42:48;;;;;;;76.03;27.90;;;;;;;-4.00;74.37;100015.16;5090258;28;20039;-75
2022/02/28 04:45:14;;;;;;;98.25;38.85;;;;;;;-3.99;74.17;100016.00;5110834;28;20475;-76
2022/02/28 04:47:39;;;;;;;88.03;36.00;;;;;;;-4.02;74.32;100014.50;5111037;28;20030;-76
2022/02/28 04:50:05;;;;;;;78.22;33.22;;;;;;;-4.03;74.17;100020.84;5111006;28;20404;-76
2022/02/28 04:52:30;;;;;;;57.28;28.70;;;;;;;-4.05;74.46;100021.00;5110167;28;20023;-77
2022/02/28 04:54:56;;;;;;;58.30;26.75;;;;;;;-4.07;74.21;100012.28;5110717;28;20388;-77
2022/02/28 04:57:21;;;;;;;52.28;27.88;;;;;;;-4.06;74.68;100013.97;5110335;28;20127;-75
2022/02/28 04:59:48;;;;;;;49.95;26.13;;;;;;;-4.09;74.53;100017.00;5110851;28;20034;-76
2022/02/28 05:02:13;;;;;;;47.35;25.45;;;;;;;-4.10;74.25;100020.66;5110208;28;20024;-76
2022/02/28 05:04:39;;;;;;;57.25;31.50;;;;;;;-4.09;74.20;100024.16;5091396;28;20031;-76
2022/02/28 05:07:04;;;;;;;84.32;43.03;;;;;;;-4.10;74.26;100015.31;5110652;28;20103;-76
2022/02/28 05:09:29;;;;;;;77.90;39.38;;;;;;;-4.10;74.47;100019.81;5075356;28;20028;-76
2022/02/28 05:11:57;;;;;;;61.63;34.10;;;;;;;-4.13;73.94;100023.66;5110265;28;20028;-76
2022/02/28 05:14:23;;;;;;;76.38;41.42;;;;;;;-4.14;74.50;100023.81;5109749;28;20031;-76
2022/02/28 05:16:48;;;;;;;56.70;26.88;;;;;;;-4.11;74.40;100023.50;5110498;28;20034;-76
2022/02/28 05:19:14;;;;;;;55.03;25.98;;;;;;;-4.15;74.07;100023.00;5110648;28;20019;-76
2022/02/28 05:21:39;;;;;;;48.28;21.00;;;;;;;-4.19;74.04;100024.31;5109612;28;20027;-76
2022/02/28 05:24:05;;;;;;;48.83;24.02;;;;;;;-4.23;74.71;100020.28;5110457;28;20034;-76
2022/02/28 05:26:31;;;;;;;50.47;22.30;;;;;;;-4.28;74.31;100022.59;5109776;28;20491;-76
2022/02/28 05:28:56;;;;;;;45.42;22.58;;;;;;;-4.30;74.54;100030.81;5092214;28;20461;-76
2022/02/28 05:31:22;;;;;;;49.05;23.77;;;;;;;-4.32;74.44;100032.81;5109802;28;20049;-75
2022/02/28 05:33:48;;;;;;;64.68;30.33;;;;;;;-4.33;73.95;100028.44;5109720;28;20067;-76
2022/02/28 05:36:14;;;;;;;58.25;28.25;;;;;;;-4.33;74.28;100025.75;5091583;28;20035;-76
2022/02/28 05:38:39;;;;;;;56.25;25.20;;;;;;;-4.30;73.99;100027.28;5110231;28;20026;-76
2022/02/28 05:41:05;;;;;;;49.95;23.20;;;;;;;-4.27;74.46;100038.50;5114152;28;20027;-77
2022/02/28 05:43:30;;;;;;;45.08;21.60;;;;;;;-4.25;74.54;100031.13;5114255;28;20058;-76
2022/02/28 05:45:56;;;;;;;42.33;20.40;;;;;;;-4.24;74.52;100035.50;5115035;28;20020;-76
2022/02/28 05:48:21;;;;;;;41.33;19.73;;;;;;;-4.23;74.24;100036.34;5095384;28;20483;-76
2022/02/28 05:50:47;;;;;;;39.47;18.05;;;;;;;-4.28;74.29;100034.13;5114197;28;20044;-76
2022/02/28 05:53:12;;;;;;;34.97;16.30;;;;;;;-4.28;74.28;100041.34;5113924;28;20034;-76
2022/02/28 05:55:38;;;;;;;35.40;16.23;;;;;;;-4.30;74.05;100033.47;5113954;28;20023;-76
2022/02/28 05:58:04;;;;;;;39.45;19.38;;;;;;;-4.33;73.83;100033.81;5114395;28;20137;-75
2022/02/28 06:00:30;;;;;;;38.78;18.35;;;;;;;-4.35;73.86;100036.63;5113225;28;20509;-76
2022/02/28 06:02:56;;;;;;;44.78;18.88;;;;;;;-4.32;74.11;100039.97;5112764;28;20035;-76
2022/02/28 06:05:21;;;;;;;42.88;17.70;;;;;;;-4.29;74.14;100040.53;5113819;28;20031;-76
2022/02/28 06:07:47;;;;;;;45.35;20.27;;;;;;;-4.28;73.81;100042.16;5114039;28;20414;-76
2022/02/28 06:10:12;;;;;;;40.83;18.98;;;;;;;-4.29;74.02;100042.34;5114123;28;20486;-76
2022/02/28 06:12:38;;;;;;;38.17;15.68;;;;;;;-4.26;74.51;100044.69;5112286;28;20490;-76
2022/02/28 06:15:04;;;;;;;38.83;17.90;;;;;;;-4.24;74.66;100050.75;5113839;28;20402;-76
2022/02/28 06:17:29;;;;;;;46.90;19.48;;;;;;;-4.25;74.20;100044.53;5113570;28;20031;-76
2022/02/28 06:19:55;;;;;;;48.42;22.10;;;;;;;-4.24;74.27;100045.38;5113262;28;20035;-76
2022/02/28 06:22:21;;;;;;;44.58;18.67;;;;;;;-4.22;74.06;100049.56;5112640;28;20023;-75
2022/02/28 06:24:46;;;;;;;39.10;17.42;;;;;;;-4.22;74.00;100049.56;5113708;28;20023;-76
2022/02/28 06:27:12;;;;;;;44.85;19.15;;;;;;;-4.21;74.44;100050.44;5092474;28;20090;-76
2022/02/28 06:29:39;;;;;;;41.03;18.88;;;;;;;-4.13;74.33;100052.28;5095047;28;20050;-76
2022/02/28 06:32:06;;;;;;;41.83;20.60;;;;;;;-4.11;74.36;100059.19;5112968;28;20475;-76
2022/02/28 06:34:31;;;;;;;51.45;23.42;;;;;;;-4.11;74.49;100053.81;5112218;28;20028;-76
2022/02/28 06:36:58;;;;;;;49.47;21.20;;;;;;;-4.10;74.20;100057.31;5113631;28;20585;-76
2022/02/28 06:39:23;;;;;;;39.47;19.13;;;;;;;-4.07;73.91;100057.00;5113201;28;20480;-77
2022/02/28 06:41:49;;;;;;;42.28;18.70;;;;;;;-4.06;73.95;100064.88;5112907;28;20118;-76
2022/02/28 06:44:14;;;;;;;59.35;26.58;;;;;;;-4.05;73.61;100085.31;5112825;28;20034;-76
2022/02/28 06:46:41;;;;;;;42.38;18.75;;;;;;;-4.09;73.92;100083.97;5113004;28;20024;-75
2022/02/28 06:49:06;;;;;;;44.03;16.52;;;;;;;-4.12;74.24;100072.72;5113179;28;20031;-74
2022/02/28 06:51:32;;;;;;;43.00;17.48;;;;;;;-4.09;74.09;100070.59;5112734;28;20538;-74
2022/02/28 06:53:57;;;;;;;45.78;18.23;;;;;;;-4.04;74.14;100081.63;5113055;28;20031;-75
2022/02/28 06:56:22;;;;;;;38.42;17.83;;;;;;;-4.03;74.24;100088.66;5112647;28;20032;-74
2022/02/28 06:58:48;;;;;;;43.38;19.77;;;;;;;-4.03;73.92;100088.66;5112545;28;20077;-74
2022/02/28 07:01:13;;;;;;;37.08;18.27;;;;;;;-4.04;74.71;100099.56;5112254;28;20035;-75
2022/02/28 07:03:39;;;;;;;39.30;19.50;;;;;;;-4.00;74.30;100100.94;5076805;28;20123;-75
2022/02/28 07:06:05;;;;;;;48.42;21.85;;;;;;;-3.93;74.43;100101.13;5112349;28;20032;-74
2022/02/28 07:08:32;;;;;;;88.78;33.78;;;;;;;-3.89;74.78;100102.47;5112241;28;20035;-74
2022/02/28 07:10:58;;;;;;;50.30;21.10;;;;;;;-3.81;74.27;100104.34;5093877;28;20549;-72
2022/02/28 07:13:25;;;;;;;45.50;19.70;;;;;;;-3.76;74.60;100099.34;5111955;28;20028;-72
2022/02/28 07:15:52;;;;;;;77.00;32.83;;;;;;;-3.71;74.26;100099.69;5112866;28;20020;-72
2022/02/28 07:18:17;;;;;;;86.90;35.60;;;;;;;-3.68;74.33;100098.53;5113001;28;20464;-73
2022/02/28 07:20:43;;;;;;;92.63;39.25;;;;;;;-3.64;74.52;100108.78;5093886;28;20023;-73
2022/02/28 07:23:09;;;;;;;60.80;28.80;;;;;;;-3.59;74.40;100101.09;5112113;28;20020;-72
2022/02/28 07:25:35;;;;;;;60.17;26.42;;;;;;;-3.57;74.06;100102.75;5112134;28;20499;-72
2022/02/28 07:28:00;;;;;;;40.92;20.38;;;;;;;-3.59;74.15;100110.97;5112624;28;20076;-73
2022/02/28 07:30:26;;;;;;;49.80;25.67;;;;;;;-3.56;74.27;100101.75;5111553;28;20036;-72
2022/02/28 07:32:52;;;;;;;42.90;20.52;;;;;;;-3.54;74.35;100118.53;5112398;28;20061;-73
2022/02/28 07:35:18;;;;;;;35.90;17.75;;;;;;;-3.55;74.12;100115.00;5111585;28;20429;-73
2022/02/28 07:37:43;;;;;;;35.88;17.58;;;;;;;-3.55;74.04;100119.53;5112511;28;20059;-73
2022/02/28 07:40:09;;;;;;;32.90;14.88;;;;;;;-3.52;73.75;100119.22;5112165;28;20089;-73
2022/02/28 07:42:36;;;;;;;38.63;17.25;;;;;;;-3.50;73.95;100114.53;5110181;28;20023;-73
2022/02/28 07:45:03;;;;;;;34.08;16.55;;;;;;;-3.49;73.97;100122.41;5103809;28;20051;-76
2022/02/28 07:47:29;;;;;;;33.10;16.10;;;;;;;-3.49;74.06;100114.34;5109323;27;21021;-74
2022/02/28 07:49:54;;;;;;;34.97;17.15;;;;;;;-3.45;74.09;100114.84;5107821;28;20543;-79
2022/02/28 07:52:20;;;;;;;40.70;18.50;;;;;;;-3.40;74.03;100119.75;5101514;28;20553;-80
2022/02/28 07:54:45;;;;;;;40.20;18.90;;;;;;;-3.37;73.74;100122.09;5106186;28;20419;-82
2022/02/28 07:57:11;;;;;;;43.55;19.60;;;;;;;-3.32;74.10;100136.69;5109574;28;20028;-81
2022/02/28 07:59:36;;;;;;;43.30;18.63;;;;;;;-3.21;74.43;100132.03;5110997;28;20031;-82
2022/02/28 08:02:02;;;;;;;38.67;15.50;;;;;;;-3.07;74.25;100131.38;5108799;28;20127;-83
2022/02/28 08:04:27;;;;;;;32.65;15.63;;;;;;;-2.91;74.38;100133.25;5107184;28;20126;-83
2022/02/28 08:06:53;;;;;;;35.80;16.10;;;;;;;-2.75;74.28;100128.84;5109535;28;20466;-81
2022/02/28 08:09:19;;;;;;;36.10;17.70;;;;;;;-2.60;74.19;100134.38;5106907;28;20039;-80
2022/02/28 08:11:45;;;;;;;34.05;16.20;;;;;;;-2.40;74.12;100118.75;5110469;28;20024;-78
2022/02/28 08:14:10;;;;;;;41.17;18.92;;;;;;;-2.21;73.98;100117.53;5108947;28;20033;-80
2022/02/28 08:16:36;;;;;;;34.17;16.17;;;;;;;-2.00;73.85;100133.13;5108908;28;20036;-84
2022/02/28 08:19:01;;;;;;;37.40;16.48;;;;;;;-1.89;73.39;100134.63;5108898;28;20484;-78
2022/02/28 08:21:27;;;;;;;32.33;15.13;;;;;;;-1.81;73.42;100133.75;5108695;28;20024;-79
2022/02/28 08:23:52;;;;;;;35.78;15.00;;;;;;;-1.81;73.17;100145.31;5107371;28;20042;-77
2022/02/28 08:26:17;;;;;;;33.60;16.23;;;;;;;-1.81;73.18;100139.94;5091134;28;20088;-82
2022/02/28 08:28:43;;;;;;;29.63;15.07;;;;;;;-1.76;72.99;100146.66;5107073;28;20034;-77
2022/02/28 08:31:08;;;;;;;34.95;17.25;;;;;;;-1.66;72.47;100149.97;5109638;28;20102;-76
2022/02/28 08:33:34;;;;;;;36.28;16.08;;;;;;;-1.52;73.12;100151.94;5103966;28;20368;-77
2022/02/28 08:35:59;;;;;;;36.33;17.08;;;;;;;-1.39;72.53;100154.06;5108300;28;20031;-78
2022/02/28 08:38:24;;;;;;;33.00;15.75;;;;;;;-1.30;72.46;100156.72;5111720;28;20106;-80
2022/02/28 08:40:50;;;;;;;39.00;17.75;;;;;;;-1.31;72.03;100160.44;5109417;28;20418;-74
2022/02/28 08:43:15;;;;;;;33.38;17.10;;;;;;;-1.35;71.77;100149.16;5111032;27;20027;-79
2022/02/28 08:45:41;;;;;;;34.40;15.68;;;;;;;-1.36;71.77;100161.78;5107760;28;20032;-80
2022/02/28 08:48:06;;;;;;;32.78;15.75;;;;;;;-1.36;71.68;100156.41;5110969;27;20035;-76
2022/02/28 08:50:32;;;;;;;29.15;14.50;;;;;;;-1.33;71.92;100160.59;5109030;27;20119;-76
2022/02/28 08:52:58;;;;;;;34.97;17.10;;;;;;;-1.26;71.92;100166.13;5109723;28;20031;-77
2022/02/28 08:55:24;;;;;;;28.80;14.70;;;;;;;-1.24;71.45;100151.47;5109206;28;20037;-76
2022/02/28 08:57:49;;;;;;;29.25;14.63;;;;;;;-1.10;71.51;100160.63;5109086;28;20406;-76
2022/02/28 09:00:17;;;;;;;28.67;14.93;;;;;;;-1.02;71.77;100157.06;5108584;28;20027;-72
2022/02/28 09:02:42;;;;;;;32.33;15.45;;;;;;;-0.93;71.85;100164.06;5109076;28;20088;-75
2022/02/28 09:05:09;;;;;;;35.88;16.70;;;;;;;-0.81;71.42;100163.66;5106689;28;20380;-83
2022/02/28 09:07:34;;;;;;;33.17;15.57;;;;;;;-0.76;71.18;100166.66;5077349;28;20040;-72
2022/02/28 09:10:00;;;;;;;37.08;16.48;;;;;;;-0.77;71.04;100163.09;5109131;28;20042;-82
2022/02/28 09:12:27;;;;;;;35.72;16.17;;;;;;;-0.77;70.70;100163.09;5111040;28;20395;-81
2022/02/28 09:14:52;;;;;;;28.13;14.77;;;;;;;-0.73;70.59;100160.91;5114312;28;20019;-79
2022/02/28 09:17:18;;;;;;;38.20;16.90;;;;;;;-0.65;70.65;100160.84;5112674;28;20036;-83
2022/02/28 09:19:43;;;;;;;32.45;14.85;;;;;;;-0.52;70.72;100165.63;5111667;28;20039;-84
2022/02/28 09:22:08;;;;;;;33.45;15.50;;;;;;;-0.40;70.51;100171.41;5109403;28;20019;-74
2022/02/28 09:24:34;;;;;;;29.30;13.60;;;;;;;-0.35;69.93;100166.31;5107935;28;20395;-84
2022/02/28 09:27:01;;;;;;;30.98;14.82;;;;;;;-0.32;70.06;100160.56;5109116;28;20085;-84
2022/02/28 09:29:29;;;;;;;29.65;14.90;;;;;;;-0.23;70.21;100168.56;5108647;28;20036;-85
2022/02/28 09:31:55;;;;;;;29.80;14.48;;;;;;;-0.06;70.14;100164.66;5109551;28;20039;-84
2022/02/28 09:34:20;;;;;;;36.28;16.98;;;;;;;0.11;69.51;100151.03;5113875;28;20020;-84
2022/02/28 09:36:47;;;;;;;32.75;16.17;;;;;;;0.29;69.31;100169.53;5115386;28;20032;-84
2022/02/28 09:39:12;;;;;;;29.13;14.60;;;;;;;0.46;69.69;100167.47;5113852;28;20038;-86
2022/02/28 09:41:38;;;;;;;28.35;15.43;;;;;;;0.61;68.50;100164.75;5113222;28;20024;-82
2022/02/28 09:44:05;;;;;;;29.92;13.80;;;;;;;0.61;68.84;100167.44;5108429;28;20019;-84
2022/02/28 09:46:32;;;;;;;33.22;15.10;;;;;;;0.54;67.75;100163.81;5108499;28;20200;-80
2022/02/28 09:48:58;;;;;;;28.17;13.40;;;;;;;0.51;67.60;100173.16;5106098;28;20031;-82
2022/02/28 09:51:24;;;;;;;35.20;16.63;;;;;;;0.60;67.49;100168.47;5104966;28;20423;-76
2022/02/28 09:53:50;;;;;;;31.92;14.40;;;;;;;0.71;67.60;100168.00;5107281;28;20035;-80
2022/02/28 09:56:17;;;;;;;50.03;18.63;;;;;;;0.72;66.56;100163.41;5106151;28;20027;-80
2022/02/28 09:58:42;;;;;;;28.23;14.30;;;;;;;0.65;66.20;100170.59;5107772;28;20096;-79
2022/02/28 10:01:13;;;;;;;55.75;23.88;;;;;;;0.67;66.58;100171.25;5088392;28;20174;-78
2022/02/28 10:03:38;;;;;;;44.85;18.48;;;;;;;0.78;66.88;100169.94;5108174;28;20034;-78
2022/02/28 10:06:04;;;;;;;77.00;27.55;;;;;;;0.91;65.78;100164.69;5110776;28;20020;-78
2022/02/28 10:08:44;;;;;;;50.92;19.23;;;;;;;1.15;66.02;100159.97;5108669;28;20061;-78
2022/02/28 10:11:34;;;;;;;36.65;15.52;;;;;;;1.42;65.29;100152.94;5111932;28;20106;-77
2022/02/28 10:14:03;;;;;;;23.20;11.30;;;;;;;1.53;65.54;100150.72;5108304;28;20031;-79
2022/02/28 10:16:46;;;;;;;120.15;40.00;;;;;;;1.57;65.61;100147.44;5091716;28;20518;-77
2022/02/28 10:19:15;;;;;;;62.15;22.73;;;;;;;1.62;64.41;100145.00;5106746;28;20035;-77
2022/02/28 10:21:51;;;;;;;117.47;37.80;;;;;;;1.61;63.61;100146.03;5108425;28;20036;-77
2022/02/28 10:24:21;;;;;;;74.97;23.38;;;;;;;1.55;63.90;100148.66;5107189;28;20024;-80
2022/02/28 10:26:49;;;;;;;78.53;24.98;;;;;;;1.54;63.61;100147.00;5111265;28;20545;-77
2022/02/28 10:29:17;;;;;;;79.32;25.75;;;;;;;1.56;63.40;100151.19;5104982;28;20104;-77
2022/02/28 10:31:45;;;;;;;77.63;24.05;;;;;;;1.54;63.27;100152.41;5110109;28;20040;-77
2022/02/28 10:34:23;;;;;;;71.32;23.60;;;;;;;1.64;63.81;100150.19;5111706;28;20506;-76
2022/02/28 10:37:06;;;;;;;55.28;20.85;;;;;;;1.73;62.35;100151.75;5093502;28;20234;-76
2022/02/28 10:39:34;;;;;;;18.63;8.82;;;;;;;1.72;60.12;100147.34;5109471;28;20093;-75
2022/02/28 10:42:08;;;;;;;15.25;7.90;;;;;;;1.60;59.12;100157.03;5111544;28;20058;-76
2022/02/28 10:44:34;;;;;;;34.22;15.18;;;;;;;1.59;60.79;100155.34;5110227;28;20085;-78
2022/02/28 10:47:09;;;;;;;29.83;12.63;;;;;;;1.75;60.68;100159.66;5112279;27;20031;-79
2022/02/28 10:49:35;;;;;;;16.98;7.78;;;;;;;2.04;61.55;100149.63;5111655;28;20173;-75
2022/02/28 10:52:12;;;;;;;23.92;9.80;;;;;;;2.26;60.48;100160.41;5110435;28;20028;-79
2022/02/28 10:54:40;;;;;;;33.60;15.00;;;;;;;2.29;59.32;100155.41;5111292;28;20024;-78
2022/02/28 10:57:15;;;;;;;16.55;7.00;;;;;;;2.23;58.60;100150.81;5090241;27;20165;-78
2022/02/28 10:59:55;;;;;;;12.02;5.40;;;;;;;2.27;58.49;100157.47;5105504;28;20035;-77
2022/02/28 11:02:36;;;;;;;11.15;4.82;;;;;;;2.44;57.69;100157.16;5112203;28;20027;-78
2022/02/28 11:05:13;;;;;;;9.90;5.53;;;;;;;2.48;57.08;100153.03;5112631;28;20506;-77
2022/02/28 11:07:49;;;;;;;16.92;8.43;;;;;;;2.29;54.38;100157.31;5112843;27;20031;-77